createdAt,value
2023-02-01T00:10:58.704Z,98470
2023-02-01T00:22:59.087Z,98470
2023-02-01T00:34:58.627Z,98470
2023-02-01T00:46:58.700Z,98470
2023-02-01T00:58:58.669Z,98460
2023-02-01T01:10:58.697Z,98470
2023-02-01T01:22:58.635Z,98470
2023-02-01T01:34:58.705Z,98470
2023-02-01T01:46:58.836Z,98440
2023-02-01T01:58:58.622Z,98430
2023-02-01T02:10:58.737Z,98450
2023-02-01T02:22:58.617Z,98450
2023-02-01T02:34:58.637Z,98440
2023-02-01T02:46:58.621Z,98430
2023-02-01T02:58:58.705Z,98420
2023-02-01T03:10:58.701Z,98410
2023-02-01T03:22:58.617Z,98400
2023-02-01T03:34:58.706Z,98400
2023-02-01T03:46:58.729Z,98380
2023-02-01T03:58:58.727Z,98370
2023-02-01T04:10:58.723Z,98380
2023-02-01T04:22:58.614Z,98380
2023-02-01T04:34:58.619Z,98400
2023-02-01T04:46:58.639Z,98390
2023-02-01T04:58:58.718Z,98390
2023-02-01T05:10:58.712Z,98400
2023-02-01T05:22:58.707Z,98390
2023-02-01T05:34:58.739Z,98370
2023-02-01T05:46:58.708Z,98350
2023-02-01T05:58:58.746Z,98380
2023-02-01T06:10:58.727Z,98380
2023-02-01T06:22:58.720Z,98360
2023-02-01T06:34:58.730Z,98370
2023-02-01T06:46:58.839Z,98360
2023-02-01T06:58:58.730Z,98380
2023-02-01T07:10:58.621Z,98380
2023-02-01T07:22:58.632Z,98390
2023-02-01T07:34:58.676Z,98420
2023-02-01T07:46:58.733Z,98430
2023-02-01T07:58:59.600Z,98460
2023-02-01T08:10:58.643Z,98450
2023-02-01T08:22:58.699Z,98450
2023-02-01T08:34:58.733Z,98460
2023-02-01T08:46:58.741Z,98470
2023-02-01T08:58:58.718Z,98470
2023-02-01T09:10:58.703Z,98490
2023-02-01T09:22:58.731Z,98510
2023-02-01T09:34:58.703Z,98500
2023-02-01T09:46:58.708Z,98500
2023-02-01T09:58:58.698Z,98500
2023-02-01T10:10:58.737Z,98490
2023-02-01T10:23:22.731Z,98500
2023-02-01T10:34:58.731Z,98470
2023-02-01T10:46:58.646Z,98480
2023-02-01T10:58:58.618Z,98450
2023-02-01T11:10:58.617Z,98450
2023-02-01T11:22:58.699Z,98450
2023-02-01T11:34:58.729Z,98440
2023-02-01T11:46:58.733Z,98440
2023-02-01T11:58:58.712Z,98440
2023-02-01T12:10:58.618Z,98420
2023-02-01T12:22:58.625Z,98400
2023-02-01T12:34:58.622Z,98400
2023-02-01T12:46:58.632Z,98380
2023-02-01T12:58:58.711Z,98360
2023-02-01T13:10:58.619Z,98380
2023-02-01T13:22:58.645Z,98370
2023-02-01T13:34:58.741Z,98360
2023-02-01T13:46:58.716Z,98350
2023-02-01T13:58:58.724Z,98340
2023-02-01T14:10:58.633Z,98340
2023-02-01T14:22:58.673Z,98350
2023-02-01T14:34:58.678Z,98350
2023-02-01T14:46:58.738Z,98340
2023-02-01T14:58:58.765Z,98350
2023-02-01T15:10:58.619Z,98350
2023-02-01T15:22:58.621Z,98360
2023-02-01T15:34:58.662Z,98350
2023-02-01T15:46:58.644Z,98360
2023-02-01T15:58:58.653Z,98350
2023-02-01T16:10:58.655Z,98350
2023-02-01T16:22:58.719Z,98370
2023-02-01T16:34:58.736Z,98350
2023-02-01T16:46:58.709Z,98380
2023-02-01T16:58:58.647Z,98400
2023-02-01T17:10:58.704Z,98410
2023-02-01T17:22:58.691Z,98410
2023-02-01T17:34:58.746Z,98410
2023-02-01T17:46:58.739Z,98430
2023-02-01T17:58:58.685Z,98430
2023-02-01T18:10:58.749Z,98430
2023-02-01T18:22:58.642Z,98430
2023-02-01T18:35:01.166Z,98420
2023-02-01T18:46:58.725Z,98410
2023-02-01T18:58:58.728Z,98410
2023-02-01T19:10:58.738Z,98410
2023-02-01T19:22:58.717Z,98430
2023-02-01T19:34:58.700Z,98430
2023-02-01T19:46:58.712Z,98420
2023-02-01T19:58:58.619Z,98410
2023-02-01T20:10:57.860Z,98420
2023-02-01T20:22:57.765Z,98420
2023-02-01T20:34:58.940Z,98430
2023-02-01T20:46:58.893Z,98420
2023-02-01T20:58:58.655Z,98410
2023-02-01T21:10:58.735Z,98430
2023-02-01T21:22:58.662Z,98430
2023-02-01T21:34:58.775Z,98430
2023-02-01T21:46:58.665Z,98430
2023-02-01T21:58:58.661Z,98460
2023-02-01T22:10:58.763Z,98450
2023-02-01T22:22:58.643Z,98480
2023-02-01T22:34:58.742Z,98460
2023-02-01T22:46:58.722Z,98480
2023-02-01T22:58:58.624Z,98470
2023-02-01T23:10:58.622Z,98480
2023-02-01T23:22:58.612Z,98490
2023-02-01T23:34:58.706Z,98490
2023-02-01T23:46:58.668Z,98500
2023-02-01T23:58:58.652Z,98510
